sensor_id;sensor_type;location;lat;lon;timestamp;noise_LAeq;noise_LA_min;noise_LA_max;noise_LA01;noise_LA95
74496;Laerm;62979;55.720;37.606;2023-06-24T00:01:39;51.04;44.58;59.47;;
74496;Laerm;62979;55.720;37.606;2023-06-24T00:04:06;51.02;43.68;59.91;;
74496;Laerm;62979;55.720;37.606;2023-06-24T00:06:35;51.19;44.07;64.94;;
74496;Laerm;62979;55.720;37.606;2023-06-24T00:09:05;55.88;43.65;74.48;;
74496;Laerm;62979;55.720;37.606;2023-06-24T00:11:33;47.98;42.84;62.27;;
74496;Laerm;62979;55.720;37.606;2023-06-24T00:14:00;51.53;44.23;68.28;;
74496;Laerm;62979;55.720;37.606;2023-06-24T00:16:27;48.74;42.84;60.19;;
74496;Laerm;62979;55.720;37.606;2023-06-24T00:18:55;49.68;43.79;57.92;;
74496;Laerm;62979;55.720;37.606;2023-06-24T00:21:26;51.35;43.91;70.06;;
74496;Laerm;62979;55.720;37.606;2023-06-24T00:23:57;50.32;43.99;63.52;;
74496;Laerm;62979;55.720;37.606;2023-06-24T00:26:24;50.70;45.00;66.17;;
74496;Laerm;62979;55.720;37.606;2023-06-24T00:28:51;48.25;42.72;54.66;;
74496;Laerm;62979;55.720;37.606;2023-06-24T00:31:19;49.28;42.71;59.26;;
74496;Laerm;62979;55.720;37.606;2023-06-24T00:33:47;47.50;43.09;54.86;;
74496;Laerm;62979;55.720;37.606;2023-06-24T00:36:15;49.24;43.12;58.66;;
74496;Laerm;62979;55.720;37.606;2023-06-24T00:38:42;50.32;43.35;64.63;;
74496;Laerm;62979;55.720;37.606;2023-06-24T00:41:10;49.33;43.48;58.21;;
74496;Laerm;62979;55.720;37.606;2023-06-24T00:43:37;49.51;43.46;65.78;;
74496;Laerm;62979;55.720;37.606;2023-06-24T00:46:05;48.41;43.31;57.55;;
74496;Laerm;62979;55.720;37.606;2023-06-24T00:48:32;47.92;43.69;55.59;;
74496;Laerm;62979;55.720;37.606;2023-06-24T00:50:59;48.01;43.08;58.91;;
74496;Laerm;62979;55.720;37.606;2023-06-24T00:53:26;47.54;42.78;58.27;;
74496;Laerm;62979;55.720;37.606;2023-06-24T00:55:55;49.76;43.02;69.54;;
74496;Laerm;62979;55.720;37.606;2023-06-24T00:58:29;50.13;43.26;62.19;;
74496;Laerm;62979;55.720;37.606;2023-06-24T01:00:57;50.18;44.63;66.36;;
74496;Laerm;62979;55.720;37.606;2023-06-24T01:03:25;47.95;42.75;66.82;;
74496;Laerm;62979;55.720;37.606;2023-06-24T01:05:53;48.28;42.14;55.76;;
74496;Laerm;62979;55.720;37.606;2023-06-24T01:08:21;48.29;43.59;56.04;;
74496;Laerm;62979;55.720;37.606;2023-06-24T01:10:50;48.61;43.32;56.78;;
74496;Laerm;62979;55.720;37.606;2023-06-24T01:13:17;48.90;42.42;65.36;;
74496;Laerm;62979;55.720;37.606;2023-06-24T01:15:47;47.79;43.33;56.70;;
74496;Laerm;62979;55.720;37.606;2023-06-24T01:18:21;50.26;43.95;61.63;;
74496;Laerm;62979;55.720;37.606;2023-06-24T01:20:59;51.79;44.13;66.51;;
74496;Laerm;62979;55.720;37.606;2023-06-24T01:27:23;53.00;43.50;76.11;;
74496;Laerm;62979;55.720;37.606;2023-06-24T01:30:19;48.29;42.51;60.26;;
74496;Laerm;62979;55.720;37.606;2023-06-24T01:32:56;50.75;44.39;67.37;;
74496;Laerm;62979;55.720;37.606;2023-06-24T01:35:32;52.68;44.52;71.40;;
74496;Laerm;62979;55.720;37.606;2023-06-24T01:38:08;52.83;43.35;82.39;;
74496;Laerm;62979;55.720;37.606;2023-06-24T01:40:41;52.06;44.17;71.28;;
74496;Laerm;62979;55.720;37.606;2023-06-24T01:43:12;50.16;43.13;69.50;;
74496;Laerm;62979;55.720;37.606;2023-06-24T01:45:42;49.82;42.60;64.91;;
74496;Laerm;62979;55.720;37.606;2023-06-24T01:48:15;52.44;42.32;69.00;;
74496;Laerm;62979;55.720;37.606;2023-06-24T01:50:55;50.23;43.36;69.43;;
74496;Laerm;62979;55.720;37.606;2023-06-24T01:53:25;48.24;41.37;65.68;;
74496;Laerm;62979;55.720;37.606;2023-06-24T01:55:54;50.31;42.18;70.63;;
74496;Laerm;62979;55.720;37.606;2023-06-24T01:58:24;49.83;43.33;62.83;;
74496;Laerm;62979;55.720;37.606;2023-06-24T02:00:52;49.19;42.21;65.56;;
74496;Laerm;62979;55.720;37.606;2023-06-24T02:03:22;46.64;41.62;58.06;;
74496;Laerm;62979;55.720;37.606;2023-06-24T02:05:50;47.58;41.04;60.70;;
74496;Laerm;62979;55.720;37.606;2023-06-24T02:08:21;45.97;40.80;58.42;;
74496;Laerm;62979;55.720;37.606;2023-06-24T02:10:51;47.09;40.21;64.34;;
74496;Laerm;62979;55.720;37.606;2023-06-24T02:13:19;45.04;40.07;59.85;;
74496;Laerm;62979;55.720;37.606;2023-06-24T02:15:49;49.35;41.25;66.91;;
74496;Laerm;62979;55.720;37.606;2023-06-24T02:18:19;47.94;41.65;65.21;;
74496;Laerm;62979;55.720;37.606;2023-06-24T02:20:51;45.83;40.94;52.87;;
74496;Laerm;62979;55.720;37.606;2023-06-24T02:23:19;46.95;41.32;61.23;;
74496;Laerm;62979;55.720;37.606;2023-06-24T02:25:49;50.26;40.65;67.14;;
74496;Laerm;62979;55.720;37.606;2023-06-24T02:28:18;48.08;40.85;64.54;;
74496;Laerm;62979;55.720;37.606;2023-06-24T02:30:46;49.61;43.69;65.11;;
74496;Laerm;62979;55.720;37.606;2023-06-24T02:33:14;47.98;42.40;57.33;;
74496;Laerm;62979;55.720;37.606;2023-06-24T02:35:41;51.69;43.30;66.22;;
74496;Laerm;62979;55.720;37.606;2023-06-24T02:38:12;47.61;42.87;64.00;;
74496;Laerm;62979;55.720;37.606;2023-06-24T02:40:39;51.95;43.68;67.04;;
74496;Laerm;62979;55.720;37.606;2023-06-24T02:43:06;47.79;41.68;65.63;;
74496;Laerm;62979;55.720;37.606;2023-06-24T02:45:34;49.71;41.46;62.59;;
74496;Laerm;62979;55.720;37.606;2023-06-24T02:48:01;48.32;41.42;64.71;;
74496;Laerm;62979;55.720;37.606;2023-06-24T02:50:29;47.77;41.53;57.45;;
74496;Laerm;62979;55.720;37.606;2023-06-24T02:52:58;47.03;42.77;58.58;;
74496;Laerm;62979;55.720;37.606;2023-06-24T02:55:27;49.17;41.09;70.57;;
74496;Laerm;62979;55.720;37.606;2023-06-24T02:57:55;47.07;42.03;56.08;;
74496;Laerm;62979;55.720;37.606;2023-06-24T03:00:23;49.97;41.86;62.33;;
74496;Laerm;62979;55.720;37.606;2023-06-24T03:02:51;48.66;42.29;59.40;;
74496;Laerm;62979;55.720;37.606;2023-06-24T03:05:18;48.34;42.64;64.09;;
74496;Laerm;62979;55.720;37.606;2023-06-24T03:07:47;48.92;43.08;60.26;;
74496;Laerm;62979;55.720;37.606;2023-06-24T03:10:14;49.55;44.43;67.24;;
74496;Laerm;62979;55.720;37.606;2023-06-24T03:12:43;47.99;42.48;63.13;;
74496;Laerm;62979;55.720;37.606;2023-06-24T03:15:10;48.33;43.76;55.98;;
74496;Laerm;62979;55.720;37.606;2023-06-24T03:17:37;48.70;42.42;58.31;;
74496;Laerm;62979;55.720;37.606;2023-06-24T03:20:06;48.90;42.05;66.36;;
74496;Laerm;62979;55.720;37.606;2023-06-24T03:22:34;52.73;42.91;64.73;;
74496;Laerm;62979;55.720;37.606;2023-06-24T03:25:01;49.85;44.19;65.65;;
74496;Laerm;62979;55.720;37.606;2023-06-24T03:27:27;50.15;43.54;60.74;;
74496;Laerm;62979;55.720;37.606;2023-06-24T03:29:56;51.50;43.03;62.24;;
74496;Laerm;62979;55.720;37.606;2023-06-24T03:32:22;49.53;43.86;65.39;;
74496;Laerm;62979;55.720;37.606;2023-06-24T03:34:49;57.61;45.59;71.72;;
74496;Laerm;62979;55.720;37.606;2023-06-24T03:37:16;49.76;44.92;68.69;;
74496;Laerm;62979;55.720;37.606;2023-06-24T03:39:43;53.52;45.51;65.25;;
74496;Laerm;62979;55.720;37.606;2023-06-24T03:42:10;50.67;43.03;62.01;;
74496;Laerm;62979;55.720;37.606;2023-06-24T03:44:37;52.76;43.32;64.71;;
74496;Laerm;62979;55.720;37.606;2023-06-24T03:47:06;57.65;40.75;67.41;;
74496;Laerm;62979;55.720;37.606;2023-06-24T03:49:33;45.44;39.85;68.22;;
74496;Laerm;62979;55.720;37.606;2023-06-24T03:52:00;47.13;40.97;62.99;;
74496;Laerm;62979;55.720;37.606;2023-06-24T03:54:26;50.00;41.93;60.62;;
74496;Laerm;62979;55.720;37.606;2023-06-24T03:56:53;49.41;40.89;60.74;;
74496;Laerm;62979;55.720;37.606;2023-06-24T03:59:20;50.89;42.23;61.66;;
74496;Laerm;62979;55.720;37.606;2023-06-24T04:01:47;48.32;43.10;59.69;;
74496;Laerm;62979;55.720;37.606;2023-06-24T04:04:18;49.76;42.36;61.76;;
74496;Laerm;62979;55.720;37.606;2023-06-24T04:06:45;48.25;42.91;57.64;;
74496;Laerm;62979;55.720;37.606;2023-06-24T04:09:12;48.77;41.15;61.54;;
74496;Laerm;62979;55.720;37.606;2023-06-24T04:11:38;46.39;41.93;53.68;;
74496;Laerm;62979;55.720;37.606;2023-06-24T04:14:05;50.28;42.89;62.32;;
74496;Laerm;62979;55.720;37.606;2023-06-24T04:16:34;48.57;42.97;62.00;;
74496;Laerm;62979;55.720;37.606;2023-06-24T04:19:01;50.34;44.53;63.22;;
74496;Laerm;62979;55.720;37.606;2023-06-24T04:21:30;51.81;42.64;61.53;;
74496;Laerm;62979;55.720;37.606;2023-06-24T04:23:57;50.44;42.77;66.43;;
74496;Laerm;62979;55.720;37.606;2023-06-24T04:26:24;48.64;43.50;66.66;;
74496;Laerm;62979;55.720;37.606;2023-06-24T04:28:50;51.02;44.16;61.31;;
74496;Laerm;62979;55.720;37.606;2023-06-24T04:31:17;52.49;46.91;63.42;;
74496;Laerm;62979;55.720;37.606;2023-06-24T04:33:44;51.70;46.60;63.35;;
74496;Laerm;62979;55.720;37.606;2023-06-24T04:36:11;52.66;46.43;63.29;;
74496;Laerm;62979;55.720;37.606;2023-06-24T04:38:39;51.42;42.69;62.02;;
74496;Laerm;62979;55.720;37.606;2023-06-24T04:41:06;52.08;44.30;62.76;;
74496;Laerm;62979;55.720;37.606;2023-06-24T04:43:33;50.84;45.76;61.73;;
74496;Laerm;62979;55.720;37.606;2023-06-24T04:46:01;51.02;45.88;70.88;;
74496;Laerm;62979;55.720;37.606;2023-06-24T04:48:28;49.93;45.86;56.80;;
74496;Laerm;62979;55.720;37.606;2023-06-24T04:50:54;51.10;45.82;60.09;;
74496;Laerm;62979;55.720;37.606;2023-06-24T04:53:23;50.54;45.52;61.96;;
74496;Laerm;62979;55.720;37.606;2023-06-24T04:55:51;53.70;46.59;69.54;;
74496;Laerm;62979;55.720;37.606;2023-06-24T04:58:18;56.95;46.07;69.33;;
74496;Laerm;62979;55.720;37.606;2023-06-24T05:00:45;57.43;51.12;71.69;;
74496;Laerm;62979;55.720;37.606;2023-06-24T05:03:12;57.47;48.00;72.23;;
74496;Laerm;62979;55.720;37.606;2023-06-24T05:05:39;57.10;49.50;70.83;;
74496;Laerm;62979;55.720;37.606;2023-06-24T05:08:06;57.86;47.36;71.99;;
74496;Laerm;62979;55.720;37.606;2023-06-24T05:10:33;52.17;46.42;60.42;;
74496;Laerm;62979;55.720;37.606;2023-06-24T05:13:01;54.51;48.22;63.48;;
74496;Laerm;62979;55.720;37.606;2023-06-24T05:15:28;53.71;47.61;67.20;;
74496;Laerm;62979;55.720;37.606;2023-06-24T05:17:55;53.31;47.50;67.24;;
74496;Laerm;62979;55.720;37.606;2023-06-24T05:20:22;53.32;48.83;60.26;;
74496;Laerm;62979;55.720;37.606;2023-06-24T05:22:49;56.51;49.34;65.31;;
74496;Laerm;62979;55.720;37.606;2023-06-24T05:25:16;55.62;48.86;71.78;;
74496;Laerm;62979;55.720;37.606;2023-06-24T05:27:43;54.95;50.79;73.16;;
74496;Laerm;62979;55.720;37.606;2023-06-24T05:30:13;55.74;50.31;70.04;;
74496;Laerm;62979;55.720;37.606;2023-06-24T05:32:40;56.44;52.38;66.87;;
74496;Laerm;62979;55.720;37.606;2023-06-24T05:35:07;58.43;55.01;70.19;;
74496;Laerm;62979;55.720;37.606;2023-06-24T05:37:34;62.64;59.00;71.70;;
74496;Laerm;62979;55.720;37.606;2023-06-24T05:40:02;62.17;59.24;68.66;;
74496;Laerm;62979;55.720;37.606;2023-06-24T05:42:30;63.52;49.35;79.09;;
74496;Laerm;62979;55.720;37.606;2023-06-24T05:44:57;55.17;47.44;67.82;;
74496;Laerm;62979;55.720;37.606;2023-06-24T05:47:25;53.94;46.46;69.22;;
74496;Laerm;62979;55.720;37.606;2023-06-24T05:49:52;55.19;48.21;67.10;;
74496;Laerm;62979;55.720;37.606;2023-06-24T05:52:19;54.09;48.95;66.31;;
74496;Laerm;62979;55.720;37.606;2023-06-24T05:54:46;53.36;47.27;65.63;;
74496;Laerm;62979;55.720;37.606;2023-06-24T05:57:15;53.38;47.81;66.13;;
74496;Laerm;62979;55.720;37.606;2023-06-24T05:59:42;53.33;47.88;59.82;;
74496;Laerm;62979;55.720;37.606;2023-06-24T06:02:09;54.95;47.50;63.54;;
74496;Laerm;62979;55.720;37.606;2023-06-24T06:04:38;53.20;47.23;63.33;;
74496;Laerm;62979;55.720;37.606;2023-06-24T06:07:05;53.95;47.95;65.10;;
74496;Laerm;62979;55.720;37.606;2023-06-24T06:09:32;53.24;48.20;63.89;;
74496;Laerm;62979;55.720;37.606;2023-06-24T06:11:59;54.28;46.78;63.11;;
74496;Laerm;62979;55.720;37.606;2023-06-24T06:14:26;54.73;47.17;68.86;;
74496;Laerm;62979;55.720;37.606;2023-06-24T06:16:53;53.71;47.54;63.26;;
74496;Laerm;62979;55.720;37.606;2023-06-24T06:19:20;52.42;46.38;61.41;;
74496;Laerm;62979;55.720;37.606;2023-06-24T06:21:49;56.42;47.03;64.09;;
74496;Laerm;62979;55.720;37.606;2023-06-24T06:24:16;56.39;47.62;66.12;;
74496;Laerm;62979;55.720;37.606;2023-06-24T06:26:44;52.94;46.32;65.79;;
74496;Laerm;62979;55.720;37.606;2023-06-24T06:29:11;54.46;46.71;68.74;;
74496;Laerm;62979;55.720;37.606;2023-06-24T06:31:38;54.77;46.77;66.64;;
74496;Laerm;62979;55.720;37.606;2023-06-24T06:34:05;55.28;47.94;70.20;;
74496;Laerm;62979;55.720;37.606;2023-06-24T06:36:32;57.87;49.33;69.42;;
74496;Laerm;62979;55.720;37.606;2023-06-24T06:39:00;55.59;47.70;69.30;;
74496;Laerm;62979;55.720;37.606;2023-06-24T06:41:27;55.75;48.58;63.72;;
74496;Laerm;62979;55.720;37.606;2023-06-24T06:43:54;56.75;49.67;70.99;;
74496;Laerm;62979;55.720;37.606;2023-06-24T06:46:21;54.38;49.41;68.45;;
74496;Laerm;62979;55.720;37.606;2023-06-24T06:48:48;52.92;48.47;61.32;;
74496;Laerm;62979;55.720;37.606;2023-06-24T06:51:16;55.44;49.75;63.22;;
74496;Laerm;62979;55.720;37.606;2023-06-24T06:53:44;55.01;48.86;68.22;;
74496;Laerm;62979;55.720;37.606;2023-06-24T06:56:18;56.72;48.42;74.41;;
74496;Laerm;62979;55.720;37.606;2023-06-24T06:58:45;56.25;46.33;66.91;;
74496;Laerm;62979;55.720;37.606;2023-06-24T07:01:12;54.51;49.29;66.41;;
74496;Laerm;62979;55.720;37.606;2023-06-24T07:03:39;55.07;48.74;67.85;;
74496;Laerm;62979;55.720;37.606;2023-06-24T07:06:06;55.17;47.52;70.77;;
74496;Laerm;62979;55.720;37.606;2023-06-24T07:08:34;55.24;48.51;67.36;;
74496;Laerm;62979;55.720;37.606;2023-06-24T07:11:01;54.08;48.13;61.80;;
74496;Laerm;62979;55.720;37.606;2023-06-24T07:13:29;55.25;47.63;66.37;;
74496;Laerm;62979;55.720;37.606;2023-06-24T07:15:56;52.37;48.18;59.37;;
74496;Laerm;62979;55.720;37.606;2023-06-24T07:18:24;55.24;49.56;64.64;;
74496;Laerm;62979;55.720;37.606;2023-06-24T07:20:56;54.49;49.73;63.31;;
74496;Laerm;62979;55.720;37.606;2023-06-24T07:23:23;59.96;47.22;72.86;;
74496;Laerm;62979;55.720;37.606;2023-06-24T07:25:50;55.48;48.78;63.58;;
74496;Laerm;62979;55.720;37.606;2023-06-24T07:28:17;55.11;46.98;73.59;;
74496;Laerm;62979;55.720;37.606;2023-06-24T07:30:45;56.18;47.59;69.58;;
74496;Laerm;62979;55.720;37.606;2023-06-24T07:33:12;55.20;49.37;64.35;;
74496;Laerm;62979;55.720;37.606;2023-06-24T07:35:39;54.91;49.30;69.49;;
74496;Laerm;62979;55.720;37.606;2023-06-24T07:38:06;59.93;49.92;75.14;;
74496;Laerm;62979;55.720;37.606;2023-06-24T07:40:32;60.36;52.08;69.54;;
74496;Laerm;62979;55.720;37.606;2023-06-24T07:42:59;56.41;50.51;65.88;;
74496;Laerm;62979;55.720;37.606;2023-06-24T07:45:26;55.81;48.56;64.86;;
74496;Laerm;62979;55.720;37.606;2023-06-24T07:47:55;55.40;47.19;64.96;;
74496;Laerm;62979;55.720;37.606;2023-06-24T07:50:21;52.92;46.41;69.38;;
74496;Laerm;62979;55.720;37.606;2023-06-24T07:52:49;53.46;47.31;65.39;;
74496;Laerm;62979;55.720;37.606;2023-06-24T07:55:16;54.67;48.09;65.13;;
74496;Laerm;62979;55.720;37.606;2023-06-24T07:57:45;56.41;48.89;62.41;;
74496;Laerm;62979;55.720;37.606;2023-06-24T08:00:14;56.19;49.90;63.29;;
74496;Laerm;62979;55.720;37.606;2023-06-24T08:02:41;54.22;46.96;63.59;;
74496;Laerm;62979;55.720;37.606;2023-06-24T08:05:10;57.38;46.78;73.84;;
74496;Laerm;62979;55.720;37.606;2023-06-24T08:07:38;61.00;52.87;82.63;;
74496;Laerm;62979;55.720;37.606;2023-06-24T08:10:06;60.72;50.85;74.19;;
74496;Laerm;62979;55.720;37.606;2023-06-24T08:12:33;60.80;48.78;76.09;;
74496;Laerm;62979;55.720;37.606;2023-06-24T08:15:00;55.63;48.31;67.87;;
74496;Laerm;62979;55.720;37.606;2023-06-24T08:17:28;55.81;48.27;65.40;;
74496;Laerm;62979;55.720;37.606;2023-06-24T08:19:55;61.20;48.14;76.06;;
74496;Laerm;62979;55.720;37.606;2023-06-24T08:22:23;54.50;48.36;64.85;;
74496;Laerm;62979;55.720;37.606;2023-06-24T08:24:50;54.73;48.83;67.30;;
74496;Laerm;62979;55.720;37.606;2023-06-24T08:27:17;55.64;46.76;68.00;;
74496;Laerm;62979;55.720;37.606;2023-06-24T08:29:44;54.67;47.62;63.78;;
74496;Laerm;62979;55.720;37.606;2023-06-24T08:32:11;53.35;47.30;64.14;;
74496;Laerm;62979;55.720;37.606;2023-06-24T08:34:38;55.24;48.74;69.91;;
74496;Laerm;62979;55.720;37.606;2023-06-24T08:37:05;55.29;48.45;66.16;;
74496;Laerm;62979;55.720;37.606;2023-06-24T08:39:33;55.17;46.34;62.28;;
74496;Laerm;62979;55.720;37.606;2023-06-24T08:42:00;56.16;47.86;65.67;;
74496;Laerm;62979;55.720;37.606;2023-06-24T08:44:27;60.69;47.70;76.10;;
74496;Laerm;62979;55.720;37.606;2023-06-24T08:46:54;54.18;46.46;63.22;;
74496;Laerm;62979;55.720;37.606;2023-06-24T08:49:30;54.37;46.06;63.73;;
74496;Laerm;62979;55.720;37.606;2023-06-24T08:52:02;53.16;44.60;61.60;;
74496;Laerm;62979;55.720;37.606;2023-06-24T08:54:35;53.18;44.59;64.57;;
74496;Laerm;62979;55.720;37.606;2023-06-24T08:57:03;54.09;43.38;62.49;;
74496;Laerm;62979;55.720;37.606;2023-06-24T08:59:33;59.30;47.05;73.01;;
74496;Laerm;62979;55.720;37.606;2023-06-24T09:02:00;54.19;46.12;63.08;;
74496;Laerm;62979;55.720;37.606;2023-06-24T09:04:27;56.61;48.90;78.31;;
74496;Laerm;62979;55.720;37.606;2023-06-24T09:06:54;56.65;48.79;73.41;;
74496;Laerm;62979;55.720;37.606;2023-06-24T09:09:22;54.11;46.25;76.46;;
74496;Laerm;62979;55.720;37.606;2023-06-24T09:11:55;53.72;45.77;71.24;;
74496;Laerm;62979;55.720;37.606;2023-06-24T09:14:24;56.16;47.17;67.33;;
74496;Laerm;62979;55.720;37.606;2023-06-24T09:16:53;54.06;47.05;65.77;;
74496;Laerm;62979;55.720;37.606;2023-06-24T09:19:21;54.76;46.36;69.97;;
74496;Laerm;62979;55.720;37.606;2023-06-24T09:21:49;52.04;45.74;64.99;;
74496;Laerm;62979;55.720;37.606;2023-06-24T09:24:17;55.16;46.36;66.40;;
74496;Laerm;62979;55.720;37.606;2023-06-24T09:26:44;53.56;46.67;60.72;;
74496;Laerm;62979;55.720;37.606;2023-06-24T09:29:13;53.27;45.17;64.27;;
74496;Laerm;62979;55.720;37.606;2023-06-24T09:31:48;53.01;45.44;63.30;;
74496;Laerm;62979;55.720;37.606;2023-06-24T09:34:19;55.78;47.78;68.24;;
74496;Laerm;62979;55.720;37.606;2023-06-24T09:36:52;53.52;46.51;66.43;;
74496;Laerm;62979;55.720;37.606;2023-06-24T09:39:19;53.25;45.21;60.52;;
74496;Laerm;62979;55.720;37.606;2023-06-24T09:41:51;52.22;46.16;61.39;;
74496;Laerm;62979;55.720;37.606;2023-06-24T09:44:19;51.92;46.83;60.94;;
74496;Laerm;62979;55.720;37.606;2023-06-24T09:46:47;53.66;46.40;62.65;;
74496;Laerm;62979;55.720;37.606;2023-06-24T09:49:14;54.52;47.12;65.41;;
74496;Laerm;62979;55.720;37.606;2023-06-24T09:51:45;54.17;47.77;61.60;;
74496;Laerm;62979;55.720;37.606;2023-06-24T09:54:14;55.24;49.04;66.68;;
74496;Laerm;62979;55.720;37.606;2023-06-24T09:56:48;55.46;49.03;63.25;;
74496;Laerm;62979;55.720;37.606;2023-06-24T09:59:19;53.77;44.83;62.29;;
74496;Laerm;62979;55.720;37.606;2023-06-24T10:01:49;55.39;47.01;67.01;;
74496;Laerm;62979;55.720;37.606;2023-06-24T10:04:18;53.34;43.70;65.86;;
74496;Laerm;62979;55.720;37.606;2023-06-24T10:06:46;52.71;44.42;61.89;;
74496;Laerm;62979;55.720;37.606;2023-06-24T10:09:13;54.99;47.11;62.83;;
74496;Laerm;62979;55.720;37.606;2023-06-24T10:11:42;52.02;46.35;67.87;;
74496;Laerm;62979;55.720;37.606;2023-06-24T10:14:10;53.81;44.61;68.33;;
74496;Laerm;62979;55.720;37.606;2023-06-24T10:16:38;55.42;47.60;64.84;;
74496;Laerm;62979;55.720;37.606;2023-06-24T10:19:06;55.64;48.39;64.02;;
74496;Laerm;62979;55.720;37.606;2023-06-24T10:21:47;55.36;46.91;67.59;;
74496;Laerm;62979;55.720;37.606;2023-06-24T10:24:28;53.22;46.78;66.15;;
74496;Laerm;62979;55.720;37.606;2023-06-24T10:27:03;51.00;44.76;62.16;;
74496;Laerm;62979;55.720;37.606;2023-06-24T10:29:34;55.37;46.05;65.67;;
74496;Laerm;62979;55.720;37.606;2023-06-24T10:32:07;54.45;47.17;73.16;;
74496;Laerm;62979;55.720;37.606;2023-06-24T10:34:40;56.73;47.81;66.04;;
74496;Laerm;62979;55.720;37.606;2023-06-24T10:37:13;54.03;46.48;65.55;;
74496;Laerm;62979;55.720;37.606;2023-06-24T10:39:45;54.34;44.85;65.06;;
74496;Laerm;62979;55.720;37.606;2023-06-24T10:42:43;51.61;44.96;69.80;;
74496;Laerm;62979;55.720;37.606;2023-06-24T10:45:18;58.01;45.34;78.00;;
74496;Laerm;62979;55.720;37.606;2023-06-24T10:47:50;53.67;47.07;63.87;;
74496;Laerm;62979;55.720;37.606;2023-06-24T10:50:20;55.57;46.92;76.52;;
74496;Laerm;62979;55.720;37.606;2023-06-24T10:52:50;54.76;47.14;64.13;;
74496;Laerm;62979;55.720;37.606;2023-06-24T10:55:22;54.14;46.83;63.96;;
74496;Laerm;62979;55.720;37.606;2023-06-24T10:57:51;53.82;44.51;67.20;;
74496;Laerm;62979;55.720;37.606;2023-06-24T11:00:21;53.10;44.68;60.84;;
74496;Laerm;62979;55.720;37.606;2023-06-24T11:02:49;51.62;44.21;64.71;;
74496;Laerm;62979;55.720;37.606;2023-06-24T11:05:16;54.95;46.06;71.52;;
74496;Laerm;62979;55.720;37.606;2023-06-24T11:07:43;53.21;44.59;62.20;;
74496;Laerm;62979;55.720;37.606;2023-06-24T11:10:13;53.20;45.79;63.75;;
74496;Laerm;62979;55.720;37.606;2023-06-24T11:12:42;54.56;44.43;64.25;;
74496;Laerm;62979;55.720;37.606;2023-06-24T11:15:12;53.89;45.19;65.77;;
74496;Laerm;62979;55.720;37.606;2023-06-24T11:17:40;54.73;45.25;63.48;;
74496;Laerm;62979;55.720;37.606;2023-06-24T11:20:11;55.57;46.60;64.07;;
74496;Laerm;62979;55.720;37.606;2023-06-24T11:22:40;54.62;44.28;64.29;;
74496;Laerm;62979;55.720;37.606;2023-06-24T11:25:15;56.38;46.75;69.20;;
74496;Laerm;62979;55.720;37.606;2023-06-24T11:27:42;53.75;46.87;71.64;;
74496;Laerm;62979;55.720;37.606;2023-06-24T11:30:12;55.70;46.24;69.37;;
74496;Laerm;62979;55.720;37.606;2023-06-24T11:32:41;52.07;43.26;60.49;;
74496;Laerm;62979;55.720;37.606;2023-06-24T11:35:11;51.67;43.20;63.36;;
74496;Laerm;62979;55.720;37.606;2023-06-24T11:37:42;54.44;44.84;72.11;;
74496;Laerm;62979;55.720;37.606;2023-06-24T11:40:12;52.41;44.23;60.77;;
74496;Laerm;62979;55.720;37.606;2023-06-24T11:42:41;52.22;43.44;74.62;;
74496;Laerm;62979;55.720;37.606;2023-06-24T11:45:11;52.53;44.50;65.24;;
74496;Laerm;62979;55.720;37.606;2023-06-24T11:47:40;53.39;43.33;63.94;;
74496;Laerm;62979;55.720;37.606;2023-06-24T11:50:09;53.76;44.01;66.12;;
74496;Laerm;62979;55.720;37.606;2023-06-24T11:52:41;53.57;45.28;60.45;;
74496;Laerm;62979;55.720;37.606;2023-06-24T11:55:15;53.04;45.83;68.20;;
74496;Laerm;62979;55.720;37.606;2023-06-24T11:57:55;54.49;46.82;68.47;;
74496;Laerm;62979;55.720;37.606;2023-06-24T12:00:24;54.17;47.64;61.75;;
74496;Laerm;62979;55.720;37.606;2023-06-24T12:02:53;59.30;43.92;72.99;;
74496;Laerm;62979;55.720;37.606;2023-06-24T12:05:27;55.20;47.45;64.37;;
74496;Laerm;62979;55.720;37.606;2023-06-24T12:07:59;51.52;45.24;61.91;;
74496;Laerm;62979;55.720;37.606;2023-06-24T12:10:28;56.26;48.89;70.64;;
74496;Laerm;62979;55.720;37.606;2023-06-24T12:12:56;54.87;48.35;70.92;;
74496;Laerm;62979;55.720;37.606;2023-06-24T12:15:24;55.63;46.26;66.95;;
74496;Laerm;62979;55.720;37.606;2023-06-24T12:17:51;60.11;45.76;73.60;;
74496;Laerm;62979;55.720;37.606;2023-06-24T12:20:17;52.37;41.75;61.68;;
74496;Laerm;62979;55.720;37.606;2023-06-24T12:22:47;52.24;44.95;60.98;;
74496;Laerm;62979;55.720;37.606;2023-06-24T12:25:15;55.71;47.21;63.86;;
74496;Laerm;62979;55.720;37.606;2023-06-24T12:27:43;57.43;46.19;64.57;;
74496;Laerm;62979;55.720;37.606;2023-06-24T12:30:11;56.61;44.93;68.62;;
74496;Laerm;62979;55.720;37.606;2023-06-24T12:32:39;54.80;48.05;66.96;;
74496;Laerm;62979;55.720;37.606;2023-06-24T12:35:07;54.42;44.70;68.40;;
74496;Laerm;62979;55.720;37.606;2023-06-24T12:37:35;53.80;42.05;68.38;;
74496;Laerm;62979;55.720;37.606;2023-06-24T12:40:06;53.74;44.07;61.64;;
74496;Laerm;62979;55.720;37.606;2023-06-24T12:42:33;55.06;44.37;70.47;;
74496;Laerm;62979;55.720;37.606;2023-06-24T12:45:00;55.69;45.16;66.78;;
74496;Laerm;62979;55.720;37.606;2023-06-24T12:47:27;54.12;44.36;66.26;;
74496;Laerm;62979;55.720;37.606;2023-06-24T12:49:53;54.07;43.19;70.59;;
74496;Laerm;62979;55.720;37.606;2023-06-24T12:52:20;54.53;45.89;67.59;;
74496;Laerm;62979;55.720;37.606;2023-06-24T12:54:47;50.90;43.45;60.33;;
74496;Laerm;62979;55.720;37.606;2023-06-24T12:57:15;55.86;45.64;68.95;;
74496;Laerm;62979;55.720;37.606;2023-06-24T12:59:42;53.22;44.03;63.78;;
74496;Laerm;62979;55.720;37.606;2023-06-24T13:02:09;56.06;42.14;72.65;;
74496;Laerm;62979;55.720;37.606;2023-06-24T13:04:36;53.45;45.01;64.12;;
74496;Laerm;62979;55.720;37.606;2023-06-24T13:07:04;54.01;44.62;64.05;;
74496;Laerm;62979;55.720;37.606;2023-06-24T13:09:32;52.59;45.90;63.69;;
74496;Laerm;62979;55.720;37.606;2023-06-24T13:11:59;55.92;44.19;71.66;;
74496;Laerm;62979;55.720;37.606;2023-06-24T13:14:27;54.26;45.78;61.80;;
74496;Laerm;62979;55.720;37.606;2023-06-24T13:16:55;53.36;46.78;64.12;;
74496;Laerm;62979;55.720;37.606;2023-06-24T13:19:22;54.75;46.22;60.81;;
74496;Laerm;62979;55.720;37.606;2023-06-24T13:21:49;51.17;44.01;60.51;;
74496;Laerm;62979;55.720;37.606;2023-06-24T13:24:16;51.57;42.94;60.86;;
74496;Laerm;62979;55.720;37.606;2023-06-24T13:26:42;51.91;43.12;58.42;;
74496;Laerm;62979;55.720;37.606;2023-06-24T13:29:10;49.77;41.80;58.66;;
74496;Laerm;62979;55.720;37.606;2023-06-24T13:31:38;52.64;42.18;70.68;;
74496;Laerm;62979;55.720;37.606;2023-06-24T13:34:05;51.78;41.90;59.36;;
74496;Laerm;62979;55.720;37.606;2023-06-24T13:36:34;51.76;40.45;63.30;;
74496;Laerm;62979;55.720;37.606;2023-06-24T13:39:03;52.12;42.73;65.05;;
74496;Laerm;62979;55.720;37.606;2023-06-24T13:41:32;62.49;42.27;80.60;;
74496;Laerm;62979;55.720;37.606;2023-06-24T13:43:59;52.26;43.39;59.31;;